createdAt,value
2018-10-03T00:00:03.750Z,10.30
2018-10-03T00:01:03.706Z,10.28
2018-10-03T00:02:03.675Z,10.22
2018-10-03T00:03:03.645Z,10.15
2018-10-03T00:04:04.352Z,10.15
2018-10-03T00:05:03.583Z,10.26
2018-10-03T00:06:03.551Z,10.25
2018-10-03T00:07:03.521Z,10.28
2018-10-03T00:08:03.489Z,10.24
2018-10-03T00:09:03.460Z,10.28
2018-10-03T00:10:03.428Z,10.19
2018-10-03T00:11:03.397Z,10.28
2018-10-03T00:12:03.368Z,10.33
2018-10-03T00:13:03.335Z,10.32
2018-10-03T00:14:03.306Z,10.22
2018-10-03T00:15:03.272Z,10.21
2018-10-03T00:16:03.242Z,10.25
2018-10-03T00:17:03.210Z,10.26
2018-10-03T00:18:03.181Z,10.22
2018-10-03T00:19:03.151Z,10.14
2018-10-03T00:20:03.117Z,10.18
2018-10-03T00:21:03.086Z,10.12
2018-10-03T00:22:03.057Z,10.06
2018-10-03T00:23:03.028Z,10.12
2018-10-03T00:24:02.993Z,10.10
2018-10-03T00:25:02.963Z,10.09
2018-10-03T00:26:02.934Z,10.14
2018-10-03T00:27:02.901Z,9.99
2018-10-03T00:28:02.869Z,10.07
2018-10-03T00:29:02.838Z,10.21
2018-10-03T00:30:02.806Z,10.30
2018-10-03T00:31:02.778Z,10.24
2018-10-03T00:32:02.747Z,10.24
2018-10-03T00:33:02.712Z,10.19
2018-10-03T00:34:02.683Z,10.07
2018-10-03T00:35:02.823Z,10.15
2018-10-03T00:36:02.621Z,10.17
2018-10-03T00:37:02.590Z,10.17
2018-10-03T00:38:02.557Z,10.14
2018-10-03T00:39:02.531Z,10.12
2018-10-03T00:40:02.496Z,10.12
2018-10-03T00:41:02.464Z,10.17
2018-10-03T00:42:02.434Z,10.18
2018-10-03T00:43:02.402Z,10.18
2018-10-03T00:44:02.373Z,10.21
2018-10-03T00:45:02.338Z,10.06
2018-10-03T00:46:02.309Z,10.12
2018-10-03T00:47:02.278Z,10.19
2018-10-03T00:48:03.908Z,10.17
2018-10-03T00:49:02.214Z,10.19
2018-10-03T00:50:02.185Z,10.22
2018-10-03T00:51:03.915Z,10.22
2018-10-03T00:52:02.122Z,10.22
2018-10-03T00:53:02.091Z,10.40
2018-10-03T00:54:02.062Z,10.32
2018-10-03T00:55:02.027Z,10.44
2018-10-03T00:56:01.999Z,10.52
2018-10-03T00:57:01.966Z,10.43
2018-10-03T00:58:01.935Z,10.33
2018-10-03T00:59:01.905Z,10.43
2018-10-03T01:00:01.873Z,10.36
2018-10-03T01:01:01.842Z,10.36
2018-10-03T01:02:01.811Z,10.25
2018-10-03T01:03:01.781Z,10.30
2018-10-03T01:04:01.748Z,10.25
2018-10-03T01:05:01.718Z,10.19
2018-10-03T01:06:01.687Z,10.22
2018-10-03T01:07:01.653Z,10.26
2018-10-03T01:08:01.623Z,10.42
2018-10-03T01:09:01.591Z,10.22
2018-10-03T01:10:01.562Z,10.28
2018-10-03T01:11:01.532Z,10.33
2018-10-03T01:12:01.498Z,10.32
2018-10-03T01:13:01.472Z,10.28
2018-10-03T01:14:01.439Z,10.32
2018-10-03T01:15:01.406Z,10.44
2018-10-03T01:16:01.374Z,10.47
2018-10-03T01:17:01.343Z,10.37
2018-10-03T01:18:01.313Z,10.33
2018-10-03T01:19:01.280Z,10.36
2018-10-03T01:20:01.250Z,10.25
2018-10-03T01:21:01.219Z,10.25
2018-10-03T01:22:01.188Z,10.22
2018-10-03T01:23:01.156Z,10.33
2018-10-03T01:24:01.127Z,10.22
2018-10-03T01:25:01.099Z,10.25
2018-10-03T01:26:01.064Z,10.28
2018-10-03T01:27:01.037Z,10.30
2018-10-03T01:28:01.003Z,10.36
2018-10-03T01:29:00.970Z,10.36
2018-10-03T01:30:00.940Z,10.43
2018-10-03T01:31:00.907Z,10.56
2018-10-03T01:32:00.878Z,10.58
2018-10-03T01:33:00.844Z,10.65
2018-10-03T01:34:00.815Z,10.71
2018-10-03T01:35:00.784Z,10.71
2018-10-03T01:36:00.759Z,10.56
2018-10-03T01:37:00.722Z,10.39
2018-10-03T01:38:00.691Z,10.59
2018-10-03T01:39:00.660Z,10.59
2018-10-03T01:40:00.630Z,10.44
2018-10-03T01:41:00.599Z,10.32
2018-10-03T01:42:00.567Z,10.33
2018-10-03T01:43:00.538Z,10.32
2018-10-03T01:44:00.505Z,10.33
2018-10-03T01:45:00.474Z,10.44
2018-10-03T01:46:00.442Z,10.44
2018-10-03T01:47:00.412Z,10.52
2018-10-03T01:48:00.384Z,10.65
2018-10-03T01:49:00.352Z,10.55
2018-10-03T01:50:00.319Z,10.46
2018-10-03T01:51:00.292Z,10.59
2018-10-03T01:52:00.257Z,10.51
2018-10-03T01:53:00.226Z,10.37
2018-10-03T01:54:00.197Z,10.43
2018-10-03T01:55:00.164Z,10.51
2018-10-03T01:56:00.134Z,10.52
2018-10-03T01:57:00.103Z,10.51
2018-10-03T01:58:00.075Z,10.55
2018-10-03T01:59:00.041Z,10.51
2018-10-03T02:00:00.011Z,10.59
2018-10-03T02:00:59.979Z,10.52
2018-10-03T02:01:59.947Z,10.52
2018-10-03T02:02:59.919Z,10.47
2018-10-03T02:03:59.886Z,10.53
2018-10-03T02:04:59.856Z,10.46
2018-10-03T02:05:59.823Z,10.51
2018-10-03T02:06:59.793Z,10.55
2018-10-03T02:07:59.763Z,10.46
2018-10-03T02:08:59.731Z,10.43
2018-10-03T02:09:59.702Z,10.30
2018-10-03T02:10:59.670Z,10.37
2018-10-03T02:11:59.640Z,10.39
2018-10-03T02:12:59.608Z,10.40
2018-10-03T02:13:59.578Z,10.47
2018-10-03T02:14:59.548Z,10.55
2018-10-03T02:15:59.518Z,10.51
2018-10-03T02:16:59.495Z,10.53
2018-10-03T02:17:59.454Z,10.47
2018-10-03T02:18:59.423Z,10.51
2018-10-03T02:19:59.392Z,10.55
2018-10-03T02:20:59.366Z,10.58
2018-10-03T02:21:59.331Z,10.66
2018-10-03T02:22:59.301Z,10.52
2018-10-03T02:23:59.268Z,10.56
2018-10-03T02:24:59.240Z,10.51
2018-10-03T02:25:59.208Z,10.47
2018-10-03T02:26:59.176Z,10.51
2018-10-03T02:27:59.145Z,10.56
2018-10-03T02:28:59.119Z,10.59
2018-10-03T02:29:59.084Z,10.53
2018-10-03T02:30:59.055Z,10.47
2018-10-03T02:31:59.025Z,10.42
2018-10-03T02:32:58.992Z,10.34
2018-10-03T02:33:58.960Z,10.34
2018-10-03T02:34:58.933Z,10.37
2018-10-03T02:35:58.901Z,10.32
2018-10-03T02:36:58.869Z,10.36
2018-10-03T02:37:58.838Z,10.51
2018-10-03T02:38:58.815Z,10.53
2018-10-03T02:39:58.784Z,10.55
2018-10-03T02:40:58.745Z,10.47
2018-10-03T02:41:58.723Z,10.52
2018-10-03T02:42:58.686Z,10.42
2018-10-03T02:43:58.654Z,10.34
2018-10-03T02:44:58.623Z,10.42
2018-10-03T02:45:58.593Z,10.52
2018-10-03T02:46:58.563Z,10.56
2018-10-03T02:47:58.534Z,10.53
2018-10-03T02:48:58.498Z,10.60
2018-10-03T02:49:58.469Z,10.52
2018-10-03T02:50:58.438Z,10.59
2018-10-03T02:51:58.410Z,10.62
2018-10-03T02:52:58.376Z,10.63
2018-10-03T02:53:58.346Z,10.73
2018-10-03T02:54:58.314Z,10.76
2018-10-03T02:55:58.285Z,10.66
2018-10-03T02:56:58.254Z,10.66
2018-10-03T02:57:58.281Z,10.83
2018-10-03T02:58:58.192Z,10.77
2018-10-03T02:59:58.162Z,10.73
2018-10-03T03:00:58.131Z,10.71
2018-10-03T03:01:58.101Z,10.71
2018-10-03T03:02:58.071Z,10.63
2018-10-03T03:03:58.039Z,10.66
2018-10-03T03:04:58.009Z,10.65
2018-10-03T03:05:57.977Z,10.66
2018-10-03T03:06:58.934Z,10.63
2018-10-03T03:07:57.919Z,10.65
2018-10-03T03:08:57.905Z,10.63
2018-10-03T03:09:57.855Z,10.73
2018-10-03T03:10:57.825Z,10.71
2018-10-03T03:11:57.803Z,10.73
2018-10-03T03:12:57.762Z,10.63
2018-10-03T03:13:57.731Z,10.59
2018-10-03T03:14:57.707Z,10.62
2018-10-03T03:15:57.672Z,10.66
2018-10-03T03:16:57.640Z,10.73
2018-10-03T03:17:57.608Z,10.84
2018-10-03T03:18:57.579Z,10.71
2018-10-03T03:19:57.549Z,10.71
2018-10-03T03:20:57.516Z,10.62
2018-10-03T03:21:57.487Z,10.65
2018-10-03T03:22:57.458Z,10.51
2018-10-03T03:23:57.425Z,10.37
2018-10-03T03:24:57.398Z,10.37
2018-10-03T03:25:57.365Z,10.25
2018-10-03T03:26:57.332Z,10.15
2018-10-03T03:27:57.305Z,10.17
2018-10-03T03:28:57.275Z,10.14
2018-10-03T03:29:57.239Z,10.04
2018-10-03T03:30:57.212Z,10.06
2018-10-03T03:31:57.180Z,10.00
2018-10-03T03:32:57.885Z,10.06
2018-10-03T03:33:57.113Z,10.03
2018-10-03T03:34:57.086Z,9.91
2018-10-03T03:35:57.056Z,9.97
2018-10-03T03:36:57.031Z,9.94
2018-10-03T03:37:57.002Z,9.93
2018-10-03T03:38:56.965Z,9.99
2018-10-03T03:39:56.933Z,9.88
2018-10-03T03:40:56.902Z,9.96
2018-10-03T03:41:56.872Z,9.86
2018-10-03T03:42:56.839Z,9.88
2018-10-03T03:43:56.811Z,9.93
2018-10-03T03:44:56.779Z,9.86
2018-10-03T03:45:56.747Z,9.97
2018-10-03T03:46:56.717Z,9.81
2018-10-03T03:47:56.686Z,9.85
2018-10-03T03:48:56.654Z,9.76
2018-10-03T03:49:56.624Z,9.73
2018-10-03T03:50:56.592Z,9.82
2018-10-03T03:51:56.562Z,9.93
2018-10-03T03:52:56.533Z,9.83
2018-10-03T03:53:56.500Z,9.88
2018-10-03T03:54:56.470Z,9.79
2018-10-03T03:55:56.440Z,9.83
2018-10-03T03:56:56.408Z,9.79
2018-10-03T03:57:56.378Z,9.73
2018-10-03T03:58:56.352Z,9.71
2018-10-03T03:59:56.316Z,9.75
2018-10-03T04:00:56.284Z,9.82
2018-10-03T04:01:56.252Z,9.81
2018-10-03T04:02:56.225Z,9.81
2018-10-03T04:03:56.199Z,9.83
2018-10-03T04:04:56.162Z,9.82
2018-10-03T04:05:56.130Z,9.88
2018-10-03T04:06:56.106Z,9.81
2018-10-03T04:07:56.068Z,9.73
2018-10-03T04:08:56.036Z,9.79
2018-10-03T04:09:56.005Z,9.89
2018-10-03T04:10:55.975Z,9.91
2018-10-03T04:11:55.945Z,9.82
2018-10-03T04:12:55.917Z,9.88
2018-10-03T04:13:55.880Z,9.83
2018-10-03T04:14:55.852Z,9.86
2018-10-03T04:15:56.440Z,10.00
2018-10-03T04:16:55.788Z,9.86
2018-10-03T04:17:55.763Z,10.01
2018-10-03T04:18:55.725Z,9.91
2018-10-03T04:19:55.695Z,9.86
2018-10-03T04:20:55.662Z,9.99
2018-10-03T04:21:55.632Z,9.83
2018-10-03T04:22:55.603Z,9.96
2018-10-03T04:23:55.572Z,9.83
2018-10-03T04:24:55.540Z,9.94
2018-10-03T04:25:55.510Z,9.85
2018-10-03T04:26:55.477Z,9.89
2018-10-03T04:27:55.451Z,9.99
2018-10-03T04:28:55.415Z,9.83
2018-10-03T04:29:55.385Z,9.83
2018-10-03T04:30:55.353Z,9.81
2018-10-03T04:31:55.322Z,9.85
2018-10-03T04:32:55.291Z,9.97
2018-10-03T04:33:55.262Z,9.94
2018-10-03T04:34:55.230Z,9.78
2018-10-03T04:35:55.198Z,9.82
2018-10-03T04:36:55.167Z,9.79
2018-10-03T04:37:55.136Z,9.83
2018-10-03T04:38:55.106Z,9.82
2018-10-03T04:39:55.074Z,9.78
2018-10-03T04:40:55.041Z,9.82
2018-10-03T04:41:55.946Z,9.96
2018-10-03T04:42:54.981Z,9.83
2018-10-03T04:43:54.951Z,9.91
2018-10-03T04:44:54.919Z,9.94
2018-10-03T04:45:54.887Z,9.88
2018-10-03T04:46:54.857Z,9.99
2018-10-03T04:47:54.826Z,9.96
2018-10-03T04:48:54.848Z,9.99
2018-10-03T04:49:54.761Z,9.96
2018-10-03T04:50:54.732Z,10.09
2018-10-03T04:51:54.702Z,10.01
2018-10-03T04:52:54.670Z,10.00
2018-10-03T04:53:54.639Z,9.94
2018-10-03T04:54:54.610Z,9.97
2018-10-03T04:55:54.580Z,9.96
2018-10-03T04:56:54.545Z,9.96
2018-10-03T04:57:54.515Z,9.91
2018-10-03T04:58:54.487Z,9.88
2018-10-03T04:59:54.455Z,9.97
2018-10-03T05:01:02.342Z,9.91
2018-10-03T05:02:47.541Z,9.94
2018-10-03T05:03:47.483Z,9.89
2018-10-03T05:05:40.813Z,9.99
2018-10-03T05:06:40.746Z,9.89
2018-10-03T05:08:34.049Z,9.82
2018-10-03T05:09:34.010Z,9.71
2018-10-03T05:11:27.884Z,9.89
2018-10-03T05:12:27.764Z,10.00
2018-10-03T05:14:21.083Z,10.04
2018-10-03T05:15:21.030Z,10.04
2018-10-03T05:17:13.849Z,9.94
2018-10-03T05:18:15.428Z,9.93
2018-10-03T05:20:07.093Z,9.99
2018-10-03T05:21:07.059Z,9.99
2018-10-03T05:23:00.659Z,9.93
2018-10-03T05:24:00.617Z,9.97
2018-10-03T05:25:53.438Z,9.91
2018-10-03T05:26:53.378Z,9.96
2018-10-03T05:28:46.980Z,9.83
2018-10-03T05:29:46.932Z,9.93
2018-10-03T05:31:39.756Z,9.89
2018-10-03T05:32:39.699Z,9.97
2018-10-03T05:34:33.022Z,9.97
2018-10-03T05:35:33.603Z,9.86
2018-10-03T05:37:26.262Z,9.97
2018-10-03T05:38:26.861Z,9.91
2018-10-03T05:40:19.839Z,9.85
2018-10-03T05:41:19.785Z,9.83
2018-10-03T05:43:12.901Z,9.82
2018-10-03T05:44:12.842Z,9.89
2018-10-03T05:46:06.141Z,10.03
2018-10-03T05:47:06.744Z,9.99
2018-10-03T05:48:06.075Z,9.97
2018-10-03T05:49:06.043Z,10.09
2018-10-03T05:50:06.010Z,10.12
2018-10-03T05:51:05.981Z,9.99
2018-10-03T05:52:05.950Z,10.10
2018-10-03T05:53:05.917Z,10.10
2018-10-03T05:54:05.888Z,9.99
2018-10-03T05:55:05.858Z,9.89
2018-10-03T05:56:05.828Z,9.96
2018-10-03T05:57:05.797Z,9.99
2018-10-03T05:58:05.765Z,9.94
2018-10-03T05:59:05.734Z,10.06
2018-10-03T06:00:05.702Z,9.99
2018-10-03T06:01:05.672Z,9.97
2018-10-03T06:02:05.640Z,9.91
2018-10-03T06:03:05.612Z,9.94
2018-10-03T06:04:05.579Z,9.91
2018-10-03T06:05:05.549Z,9.96
2018-10-03T06:06:05.518Z,9.85
2018-10-03T06:07:05.490Z,9.83
2018-10-03T06:08:05.456Z,9.88
2018-10-03T06:09:05.426Z,9.91
2018-10-03T06:10:05.393Z,9.94
2018-10-03T06:11:05.365Z,9.91
2018-10-03T06:12:05.354Z,9.99
2018-10-03T06:13:05.303Z,9.91
2018-10-03T06:14:05.272Z,9.89
2018-10-03T06:15:05.239Z,9.93
2018-10-03T06:16:05.208Z,10.06
2018-10-03T06:17:05.174Z,10.01
2018-10-03T06:18:05.146Z,10.01
2018-10-03T06:19:05.115Z,10.12
2018-10-03T06:20:05.084Z,10.09
2018-10-03T06:21:05.053Z,10.09
2018-10-03T06:22:05.027Z,10.12
2018-10-03T06:23:04.995Z,10.12
2018-10-03T06:24:04.959Z,10.17
2018-10-03T06:25:04.932Z,10.15
2018-10-03T06:26:04.901Z,10.14
2018-10-03T06:27:04.870Z,10.18
2018-10-03T06:28:04.852Z,10.22
2018-10-03T06:29:04.807Z,10.36
2018-10-03T06:30:04.777Z,10.47
2018-10-03T06:31:04.745Z,10.47
2018-10-03T06:32:04.715Z,10.42
2018-10-03T06:33:04.685Z,10.44
2018-10-03T06:34:04.666Z,10.52
2018-10-03T06:35:04.624Z,10.65
2018-10-03T06:36:04.623Z,10.60
2018-10-03T06:37:04.564Z,10.70
2018-10-03T06:38:04.530Z,10.60
2018-10-03T06:39:04.499Z,10.56
2018-10-03T06:40:04.469Z,10.63
2018-10-03T06:41:04.438Z,10.55
2018-10-03T06:42:04.409Z,10.62
2018-10-03T06:43:04.381Z,10.56
2018-10-03T06:44:04.349Z,10.65
2018-10-03T06:45:04.320Z,10.62
2018-10-03T06:46:04.288Z,10.65
2018-10-03T06:47:04.257Z,10.63
2018-10-03T06:48:04.225Z,10.59
2018-10-03T06:49:04.197Z,10.68
2018-10-03T06:50:04.164Z,10.59
2018-10-03T06:51:04.133Z,10.63
2018-10-03T06:52:04.106Z,10.76
2018-10-03T06:53:04.073Z,10.73
2018-10-03T06:54:04.043Z,10.89
2018-10-03T06:55:04.752Z,10.83
2018-10-03T06:56:03.981Z,10.84
2018-10-03T06:57:03.964Z,10.86
2018-10-03T06:58:03.922Z,10.84
2018-10-03T06:59:03.892Z,10.91
2018-10-03T07:00:03.861Z,10.91
2018-10-03T07:01:03.832Z,10.80
2018-10-03T07:02:03.803Z,10.84
2018-10-03T07:03:03.772Z,10.91
2018-10-03T07:04:03.740Z,10.94
2018-10-03T07:05:03.712Z,10.88
2018-10-03T07:06:04.253Z,10.92
2018-10-03T07:07:03.647Z,10.86
2018-10-03T07:08:03.619Z,10.92
2018-10-03T07:09:03.590Z,10.91
2018-10-03T07:10:03.563Z,10.89
2018-10-03T07:11:03.527Z,10.98
2018-10-03T07:12:03.496Z,11.02
2018-10-03T07:13:03.493Z,10.95
2018-10-03T07:14:03.438Z,11.02
2018-10-03T07:15:03.411Z,10.99
2018-10-03T07:16:03.375Z,10.95
2018-10-03T07:17:04.255Z,10.86
2018-10-03T07:18:03.317Z,10.83
2018-10-03T07:19:03.287Z,11.01
2018-10-03T07:20:03.308Z,11.13
2018-10-03T07:21:03.225Z,11.32
2018-10-03T07:22:03.196Z,11.44
2018-10-03T07:23:03.165Z,11.36
2018-10-03T07:24:03.137Z,11.47
2018-10-03T07:25:03.106Z,11.65
2018-10-03T07:26:03.096Z,11.65
2018-10-03T07:27:03.045Z,11.71
2018-10-03T07:28:03.017Z,11.67
2018-10-03T07:29:02.988Z,11.53
2018-10-03T07:30:02.956Z,11.50
2018-10-03T07:31:02.928Z,11.56
2018-10-03T07:32:02.895Z,11.70
2018-10-03T07:33:02.866Z,11.61
2018-10-03T07:34:02.837Z,11.46
2018-10-03T07:35:02.808Z,11.31
2018-10-03T07:36:02.790Z,11.36
2018-10-03T07:37:02.749Z,11.17
2018-10-03T07:38:02.719Z,11.06
2018-10-03T07:39:02.689Z,10.88
2018-10-03T07:40:02.657Z,10.89
2018-10-03T07:41:02.628Z,10.71
2018-10-03T07:42:02.599Z,10.80
2018-10-03T07:43:02.569Z,10.77
2018-10-03T07:44:02.585Z,10.77
2018-10-03T07:45:02.509Z,10.84
2018-10-03T07:46:02.483Z,10.77
2018-10-03T07:47:02.450Z,10.68
2018-10-03T07:48:02.483Z,10.63
2018-10-03T07:49:02.390Z,10.66
2018-10-03T07:50:02.359Z,10.70
2018-10-03T07:51:02.329Z,10.62
2018-10-03T07:52:02.298Z,10.63
2018-10-03T07:53:02.265Z,10.74
2018-10-03T07:54:02.237Z,10.70
2018-10-03T07:55:02.209Z,10.83
2018-10-03T07:56:02.190Z,10.88
2018-10-03T07:57:02.147Z,10.80
2018-10-03T07:58:02.116Z,10.78
2018-10-03T07:59:02.106Z,10.62
2018-10-03T08:00:02.056Z,10.76
2018-10-03T08:01:02.026Z,10.65
2018-10-03T08:02:01.994Z,10.74
2018-10-03T08:03:01.964Z,10.83
2018-10-03T08:04:01.934Z,10.92
2018-10-03T08:05:01.904Z,10.89
2018-10-03T08:06:01.872Z,10.99
2018-10-03T08:07:01.842Z,10.91
2018-10-03T08:08:01.812Z,10.91
2018-10-03T08:09:01.823Z,10.95
2018-10-03T08:10:01.773Z,10.86
2018-10-03T08:11:01.721Z,11.13
2018-10-03T08:12:01.689Z,11.19
2018-10-03T08:13:01.663Z,11.17
2018-10-03T08:14:01.632Z,11.20
2018-10-03T08:15:01.612Z,11.27
2018-10-03T08:16:01.569Z,11.29
2018-10-03T08:17:01.540Z,11.31
2018-10-03T08:18:01.508Z,11.21
2018-10-03T08:19:01.481Z,11.25
2018-10-03T08:20:01.447Z,11.19
2018-10-03T08:21:01.415Z,11.32
2018-10-03T08:22:01.386Z,11.28
2018-10-03T08:23:01.360Z,11.28
2018-10-03T08:24:01.325Z,11.25
2018-10-03T08:25:01.298Z,11.34
2018-10-03T08:26:01.266Z,11.49
2018-10-03T08:27:01.236Z,11.44
2018-10-03T08:28:01.208Z,11.39
2018-10-03T08:29:01.176Z,11.49
2018-10-03T08:30:01.202Z,11.43
2018-10-03T08:31:01.117Z,11.35
2018-10-03T08:32:01.085Z,11.31
2018-10-03T08:33:01.167Z,11.32
2018-10-03T08:34:01.025Z,11.28
2018-10-03T08:35:00.997Z,11.32
2018-10-03T08:36:00.966Z,11.43
2018-10-03T08:37:00.933Z,11.49
2018-10-03T08:38:00.906Z,11.28
2018-10-03T08:39:00.877Z,11.25
2018-10-03T08:40:06.757Z,11.41
2018-10-03T08:41:00.813Z,11.21
2018-10-03T08:42:01.770Z,10.95
2018-10-03T08:43:00.756Z,10.86
2018-10-03T08:44:00.726Z,10.74
2018-10-03T08:45:00.694Z,10.88
2018-10-03T08:46:00.667Z,10.91
2018-10-03T08:47:00.634Z,10.96
2018-10-03T08:48:00.607Z,10.89
2018-10-03T08:49:00.573Z,10.76
2018-10-03T08:50:00.542Z,10.44
2018-10-03T08:51:00.512Z,10.47
2018-10-03T08:52:00.579Z,10.47
2018-10-03T08:53:00.453Z,10.42
2018-10-03T08:54:00.421Z,10.43
2018-10-03T08:55:00.392Z,10.24
2018-10-03T08:56:00.359Z,10.30
2018-10-03T08:57:00.329Z,10.07
2018-10-03T08:58:00.314Z,10.01
2018-10-03T08:59:00.268Z,10.22
2018-10-03T09:00:00.238Z,10.36
2018-10-03T09:01:00.207Z,10.39
2018-10-03T09:02:00.175Z,10.51
2018-10-03T09:03:00.145Z,10.62
2018-10-03T09:04:00.114Z,10.70
2018-10-03T09:05:00.085Z,10.77
2018-10-03T09:06:00.054Z,10.74
2018-10-03T09:07:00.022Z,10.66
2018-10-03T09:07:59.991Z,10.74
2018-10-03T09:08:59.961Z,10.80
2018-10-03T09:09:59.929Z,10.76
2018-10-03T09:10:59.899Z,10.76
2018-10-03T09:11:59.868Z,10.76
2018-10-03T09:13:00.777Z,10.74
2018-10-03T09:13:59.809Z,10.83
2018-10-03T09:15:00.274Z,10.81
2018-10-03T09:15:59.745Z,10.86
2018-10-03T09:16:59.714Z,10.94
2018-10-03T09:17:59.683Z,10.81
2018-10-03T09:18:59.654Z,10.94
2018-10-03T09:19:59.624Z,10.91
2018-10-03T09:20:59.590Z,10.88
2018-10-03T09:21:59.562Z,10.86
2018-10-03T09:22:59.530Z,10.80
2018-10-03T09:23:59.499Z,10.89
2018-10-03T09:24:59.468Z,11.13
2018-10-03T09:25:59.437Z,10.98
2018-10-03T09:26:59.408Z,10.99
2018-10-03T09:27:59.376Z,11.06
2018-10-03T09:28:59.351Z,11.03
2018-10-03T09:29:59.316Z,11.27
2018-10-03T09:30:59.285Z,11.50
2018-10-03T09:31:59.255Z,11.71
2018-10-03T09:32:59.223Z,11.97
2018-10-03T09:33:59.195Z,12.13
2018-10-03T09:34:59.166Z,12.21
2018-10-03T09:35:59.139Z,12.41
2018-10-03T09:36:59.106Z,12.66
2018-10-03T09:37:59.079Z,12.64
2018-10-03T09:38:59.046Z,12.77
2018-10-03T09:39:59.017Z,12.51
2018-10-03T09:40:58.985Z,12.42
2018-10-03T09:41:58.965Z,12.51
2018-10-03T09:42:58.936Z,12.66
2018-10-03T09:43:58.897Z,12.66
2018-10-03T09:44:58.866Z,12.70
2018-10-03T09:45:58.836Z,12.87
2018-10-03T09:46:58.809Z,13.04
2018-10-03T09:47:58.779Z,13.25
2018-10-03T09:48:58.748Z,13.21
2018-10-03T09:49:58.721Z,13.29
2018-10-03T09:50:58.693Z,13.37
2018-10-03T09:51:58.661Z,13.47
2018-10-03T09:52:58.634Z,13.44
2018-10-03T09:53:58.604Z,13.29
2018-10-03T09:54:58.576Z,13.21
2018-10-03T09:55:58.550Z,13.04
2018-10-03T09:56:58.516Z,13.18
2018-10-03T09:57:58.488Z,13.46
2018-10-03T09:58:58.461Z,13.56
2018-10-03T09:59:58.431Z,13.61
2018-10-03T10:00:58.482Z,13.38
2018-10-03T10:01:58.375Z,13.49
2018-10-03T10:02:58.346Z,13.67
2018-10-03T10:03:58.319Z,13.71
2018-10-03T10:04:58.289Z,13.65
2018-10-03T10:05:58.266Z,13.79
2018-10-03T10:06:58.234Z,13.80
2018-10-03T10:07:58.204Z,13.99
2018-10-03T10:08:58.782Z,14.04
2018-10-03T10:09:58.146Z,13.96
2018-10-03T10:10:58.172Z,13.95
2018-10-03T10:11:58.096Z,14.17
2018-10-03T10:12:58.064Z,14.09
2018-10-03T10:13:58.039Z,14.09
2018-10-03T10:14:58.008Z,13.94
2018-10-03T10:15:57.980Z,13.77
2018-10-03T10:16:57.954Z,13.44
2018-10-03T10:17:57.925Z,13.33
2018-10-03T10:18:57.899Z,13.32
2018-10-03T10:19:57.869Z,13.32
2018-10-03T10:20:57.880Z,13.07
2018-10-03T10:21:57.817Z,12.66
2018-10-03T10:22:57.786Z,12.49
2018-10-03T10:23:57.754Z,12.27
2018-10-03T10:24:57.728Z,12.16
2018-10-03T10:25:57.693Z,12.06
2018-10-03T10:26:57.671Z,12.04
2018-10-03T10:27:57.641Z,12.16
2018-10-03T10:28:57.616Z,12.20
2018-10-03T10:29:57.584Z,12.23
2018-10-03T10:30:57.557Z,12.20
2018-10-03T10:31:57.692Z,12.09
2018-10-03T10:32:57.555Z,12.09
2018-10-03T10:33:57.469Z,12.19
2018-10-03T10:34:57.439Z,12.21
2018-10-03T10:35:57.410Z,12.20
2018-10-03T10:36:57.383Z,12.19
2018-10-03T10:37:57.354Z,12.05
2018-10-03T10:38:57.325Z,12.29
2018-10-03T10:39:57.299Z,12.42
2018-10-03T10:40:57.323Z,12.57
2018-10-03T10:41:57.235Z,12.89
2018-10-03T10:42:57.208Z,12.81
2018-10-03T10:43:57.179Z,12.77
2018-10-03T10:44:57.148Z,12.81
2018-10-03T10:45:57.122Z,12.97
2018-10-03T10:46:57.095Z,13.12
2018-10-03T10:47:57.064Z,13.30
2018-10-03T10:48:57.032Z,13.21
2018-10-03T10:49:57.006Z,13.15
2018-10-03T10:50:56.977Z,13.03
2018-10-03T10:51:56.948Z,13.07
2018-10-03T10:52:56.917Z,12.84
2018-10-03T10:53:56.890Z,12.87
2018-10-03T10:54:56.865Z,12.85
2018-10-03T10:55:56.831Z,12.85
2018-10-03T10:56:56.801Z,12.97
2018-10-03T10:57:56.771Z,13.11
2018-10-03T10:58:56.746Z,13.24
2018-10-03T10:59:56.716Z,13.47
2018-10-03T11:00:57.293Z,13.46
2018-10-03T11:01:56.657Z,13.47
2018-10-03T11:02:56.628Z,13.46
2018-10-03T11:03:56.601Z,13.49
2018-10-03T11:04:56.572Z,13.33
2018-10-03T11:05:56.544Z,13.25
2018-10-03T11:06:56.515Z,13.43
2018-10-03T11:07:56.487Z,13.61
2018-10-03T11:08:56.458Z,13.71
2018-10-03T11:09:56.429Z,13.84
2018-10-03T11:10:56.401Z,13.69
2018-10-03T11:11:56.371Z,13.62
2018-10-03T11:12:56.343Z,13.70
2018-10-03T11:13:56.318Z,13.61
2018-10-03T11:14:56.288Z,13.44
2018-10-03T11:15:56.259Z,13.36
2018-10-03T11:16:56.275Z,13.37
2018-10-03T11:17:56.210Z,13.36
2018-10-03T11:18:56.175Z,13.56
2018-10-03T11:19:56.150Z,13.36
2018-10-03T11:20:56.118Z,13.21
2018-10-03T11:21:56.090Z,13.22
2018-10-03T11:22:56.062Z,13.38
2018-10-03T11:23:56.249Z,13.37
2018-10-03T11:24:56.153Z,13.46
2018-10-03T11:25:55.975Z,13.49
2018-10-03T11:26:55.948Z,13.63
2018-10-03T11:27:55.920Z,13.47
2018-10-03T11:28:55.892Z,13.33
2018-10-03T11:29:55.862Z,13.40
2018-10-03T11:30:55.836Z,13.21
2018-10-03T11:31:55.810Z,13.15
2018-10-03T11:32:55.776Z,13.30
2018-10-03T11:33:55.749Z,13.43
2018-10-03T11:34:55.721Z,13.46
2018-10-03T11:35:55.692Z,13.46
2018-10-03T11:36:55.664Z,13.58
2018-10-03T11:37:55.639Z,13.62
2018-10-03T11:38:55.605Z,13.54
2018-10-03T11:39:55.581Z,13.30
2018-10-03T11:40:55.547Z,13.12
2018-10-03T11:41:55.522Z,13.14
2018-10-03T11:42:55.493Z,13.17
2018-10-03T11:43:55.539Z,13.30
2018-10-03T11:44:55.438Z,13.52
2018-10-03T11:45:55.409Z,13.56
2018-10-03T11:46:55.381Z,13.56
2018-10-03T11:47:55.348Z,13.52
2018-10-03T11:48:55.321Z,13.59
2018-10-03T11:49:55.296Z,13.70
2018-10-03T11:50:55.265Z,13.88
2018-10-03T11:51:55.235Z,13.89
2018-10-03T11:52:55.209Z,13.95
2018-10-03T11:53:55.180Z,13.95
2018-10-03T11:54:55.154Z,14.01
2018-10-03T11:55:55.125Z,14.12
2018-10-03T11:56:55.161Z,13.96
2018-10-03T11:57:55.067Z,14.02
2018-10-03T11:58:55.043Z,13.94
2018-10-03T11:59:55.012Z,13.94
2018-10-03T12:00:54.984Z,13.83
2018-10-03T12:01:54.953Z,13.98
2018-10-03T12:02:54.964Z,14.12
2018-10-03T12:03:54.898Z,14.19
2018-10-03T12:04:54.872Z,14.35
2018-10-03T12:05:54.845Z,14.46
2018-10-03T12:06:54.817Z,14.28
2018-10-03T12:07:54.793Z,14.28
2018-10-03T12:08:54.759Z,14.25
2018-10-03T12:09:54.732Z,14.32
2018-10-03T12:10:54.706Z,14.42
2018-10-03T12:11:54.679Z,14.52
2018-10-03T12:12:54.649Z,14.57
2018-10-03T12:13:54.623Z,14.35
2018-10-03T12:14:54.593Z,14.31
2018-10-03T12:15:54.566Z,14.24
2018-10-03T12:16:54.542Z,14.27
2018-10-03T12:17:54.508Z,14.31
2018-10-03T12:18:54.485Z,14.37
2018-10-03T12:19:54.456Z,14.54
2018-10-03T12:20:54.429Z,14.42
2018-10-03T12:21:54.401Z,14.29
2018-10-03T12:22:54.374Z,14.43
2018-10-03T12:23:54.347Z,14.27
2018-10-03T12:24:54.324Z,14.25
2018-10-03T12:25:54.293Z,14.46
2018-10-03T12:26:54.267Z,14.38
2018-10-03T12:27:54.238Z,14.42
2018-10-03T12:28:54.212Z,14.52
2018-10-03T12:29:54.188Z,14.52
2018-10-03T12:30:54.157Z,14.60
2018-10-03T12:31:54.131Z,14.54
2018-10-03T12:32:54.101Z,14.67
2018-10-03T12:33:54.139Z,14.54
2018-10-03T12:34:54.048Z,14.53
2018-10-03T12:35:54.021Z,14.47
2018-10-03T12:36:53.995Z,14.29
2018-10-03T12:37:53.967Z,14.32
2018-10-03T12:38:53.940Z,14.29
2018-10-03T12:39:53.910Z,14.34
2018-10-03T12:40:53.883Z,14.37
2018-10-03T12:41:53.856Z,14.56
2018-10-03T12:42:53.830Z,14.39
2018-10-03T12:43:53.801Z,14.39
2018-10-03T12:44:53.832Z,14.37
2018-10-03T12:45:53.746Z,14.47
2018-10-03T12:46:53.720Z,14.53
2018-10-03T12:47:53.690Z,14.56
2018-10-03T12:48:53.663Z,14.57
2018-10-03T12:49:53.635Z,14.67
2018-10-03T12:50:53.609Z,14.62
2018-10-03T12:51:53.582Z,14.53
2018-10-03T12:52:53.577Z,14.42
2018-10-03T12:53:53.527Z,14.37
2018-10-03T12:54:53.592Z,14.52
2018-10-03T12:55:54.312Z,14.42
2018-10-03T12:56:53.444Z,14.29
2018-10-03T12:57:53.420Z,14.44
2018-10-03T12:58:53.392Z,14.20
2018-10-03T12:59:53.362Z,14.34
2018-10-03T13:00:53.335Z,14.24
2018-10-03T13:01:53.307Z,14.43
2018-10-03T13:02:53.280Z,14.67
2018-10-03T13:03:53.253Z,14.83
2018-10-03T13:04:53.229Z,14.78
2018-10-03T13:05:53.200Z,14.69
2018-10-03T13:06:53.170Z,14.61
2018-10-03T13:07:53.143Z,14.52
2018-10-03T13:08:53.116Z,14.61
2018-10-03T13:09:53.090Z,14.57
2018-10-03T13:10:53.064Z,14.69